Latest Weather Observations for Latrobe Valley

IDV60801

Issued at 1:32 pm EST Tuesday 27 September 2016 (issued every 30 minutes, with the page automatically refreshed every 10 minutes)

About weather observations | Map of weather stations | Latest weather observations for VIC | Other Formats
Station Details ID: 085280 Name: LATROBE VALLEY AIRPORT Lat: -38.21 Lon: 146.47 Height: 55.7 m
Data from the previous 72 hours. | See also: Recent months at Latrobe Valley
Date/Time
EST
Temp
°C
App
Temp
°C
Dew
Point
°C
Rel
Hum
%
Delta-T
°C
Wind Press
QNH
hPa
Press
MSL
hPa
Rain since
9am
mm
Dir  Spd
km/h
Gust
km/h
Spd
kts
Gust
kts
27/01:30pm 14.0 8.7 6.8 62 3.5 W 24 35 13 19 1010.8 1010.9 0.0
27/01:00pm 13.2 8.3 6.8 65 3.1 WNW 22 30 12 16 1010.9 1011.0 0.0
27/12:30pm 13.0 6.9 6.4 64 3.2 W 28 35 15 19 1010.9 1011.0 0.0
27/12:00pm 13.4 7.7 6.7 64 3.2 WNW 26 37 14 20 1010.9 1011.0 0.0
27/11:30am 13.4 7.2 6.0 61 3.5 W 28 37 15 20 1010.8 1010.9 0.0
27/11:00am 13.8 8.4 7.8 67 3.0 W 26 35 14 19 1010.8 1010.9 0.0
27/10:30am 12.2 6.9 6.7 69 2.6 WSW 24 32 13 17 1010.9 1011.0 0.0
27/10:00am 11.5 5.7 6.4 71 2.4 W 26 35 14 19 1010.9 1011.0 0.0
27/09:30am 10.6 4.9 6.6 76 1.9 W 26 37 14 20 1010.8 1010.9 0.0
27/09:00am 10.0 5.1 6.9 81 1.5 W 22 32 12 17 1010.7 1010.8 5.4
27/08:30am 9.7 4.8 6.8 82 1.4 W 22 32 12 17 1010.5 1010.6 5.4
27/08:00am 9.2 5.3 7.0 86 1.0 W 17 24 9 13 1010.3 1010.4 5.4
27/07:30am 8.7 4.8 7.2 90 0.7 W 17 22 9 12 1010.1 1010.2 5.4
27/07:00am 7.6 3.9 6.2 91 0.6 W 15 19 8 10 1009.8 1009.9 5.4
27/06:30am 7.1 4.1 6.0 93 0.5 W 11 15 6 8 1009.6 1009.7 5.4
27/06:18am 7.0 4.4 5.9 93 0.5 W 9 13 5 7 1009.5 1009.6 5.4
27/06:05am 6.8 4.1 5.7 93 0.5 W 9 13 5 7 1009.3 1009.4 5.2
27/06:00am 6.8 3.7 5.7 93 0.5 WSW 11 13 6 7 1009.3 1009.4 5.2
27/05:30am 6.8 3.4 5.7 93 0.5 WNW 13 17 7 9 1009.2 1009.3 5.2
27/05:00am 7.1 2.5 5.7 91 0.6 WNW 19 26 10 14 1008.9 1009.0 5.2
27/04:30am 6.7 3.7 6.0 95 0.3 WNW 11 15 6 8 1008.6 1008.7 5.2
27/04:00am 6.1 3.3 5.2 94 0.4 WSW 9 11 5 6 1008.5 1008.6 5.2
27/03:30am 6.4 3.7 5.5 94 0.4 SW 9 11 5 6 1008.5 1008.6 5.2
27/03:00am 6.9 3.9 6.0 94 0.4 W 11 13 6 7 1008.6 1008.7 5.2
27/02:30am 7.5 5.0 6.6 94 0.4 WSW 9 9 5 5 1008.8 1008.9 5.2
27/02:00am 7.3 5.1 6.2 93 0.5 SW 7 9 4 5 1008.8 1008.9 5.2
27/01:30am 7.3 4.0 6.2 93 0.5 NW 13 17 7 9 1009.3 1009.4 5.2
27/01:00am 6.9 4.2 5.8 93 0.5 NW 9 15 5 8 1009.2 1009.3 5.2
27/12:30am 7.6 3.2 6.4 92 0.5 W 19 28 10 15 1009.8 1009.9 5.2
27/12:15am 7.8 1.3 6.6 92 0.6 WNW 30 43 16 23 1010.5 1010.6 5.0
27/12:00am 8.5 3.3 7.4 93 0.5 WNW 24 39 13 21 1010.4 1010.5 4.2
 
Date/Time
EST
Temp
°C
App
Temp
°C
Dew
Point
°C
Rel
Hum
%
Delta-T
°C
Wind Press
QNH
hPa
Press
MSL
hPa
Rain since
9am
mm
Dir  Spd
km/h
Gust
km/h
Spd
kts
Gust
kts
26/11:58pm 8.8 4.5 7.7 93 0.5 WNW 20 33 11 18 1010.4 1010.5 4.0
26/11:30pm 9.3 8.1 8.2 93 0.5 NNE 4 9 2 5 1009.7 1009.8 2.2
26/11:12pm 9.3 8.4 7.9 91 0.7 NE 2 9 1 5 1010.0 1010.1 1.2
26/11:00pm 9.2 7.4 7.8 91 0.7 N 7 13 4 7 1009.9 1010.0 0.6
26/10:30pm 9.4 7.7 7.5 88 0.9 S 6 7 3 4 1009.7 1009.8 0.4
26/10:00pm 9.6 7.9 7.5 87 1.0 NE 6 9 3 5 1010.1 1010.2 0.4
26/09:30pm 10.0 7.6 7.1 82 1.4 E 9 13 5 7 1010.3 1010.4 0.2
26/09:00pm 10.0 8.0 6.9 81 1.5 E 7 13 4 7 1010.3 1010.4 0.2
26/08:30pm 10.3 7.9 7.0 80 1.6 E 9 15 5 8 1010.3 1010.4 0.2
26/08:00pm 10.6 8.2 7.1 79 1.7 E 9 13 5 7 1010.2 1010.3 0.2
26/07:30pm 10.6 8.2 6.9 78 1.8 E 9 11 5 6 1010.1 1010.2 0.2
26/07:00pm 11.2 9.2 7.1 76 2.0 E 7 11 4 6 1009.9 1010.0 0.2
26/06:30pm 11.1 9.1 7.2 77 1.9 E 7 9 4 5 1009.9 1010.0 0.2
26/06:00pm 11.6 9.9 7.5 76 2.0 ENE 6 9 3 5 1009.8 1009.9 0.2
26/05:30pm 11.8 10.0 8.1 78 1.8 N 7 9 4 5 1009.8 1009.9 0.2
26/05:00pm 13.4 11.9 8.5 72 2.5 NNW 6 7 3 4 1009.6 1009.7 0.2
26/04:30pm 11.4 8.0 7.5 77 1.9 N 15 24 8 13 1009.5 1009.6 0.2
26/04:00pm 12.4 11.0 8.9 79 1.8 N 6 9 3 5 1009.5 1009.6 0.2
26/03:30pm 10.6 8.8 8.0 84 1.3 N 7 13 4 7 1009.8 1009.9 0.0
26/03:00pm 11.7 6.4 6.6 71 2.4 NW 24 41 13 22 1009.8 1009.9 0.0
26/02:58pm 12.6 8.1 6.9 68 2.7 NW 20 41 11 22 1009.8 1009.9 0.0
26/02:30pm 15.1 12.3 5.0 51 4.8 WNW 9 17 5 9 1009.6 1009.7 0.0
26/02:00pm 15.1 11.7 5.9 54 4.4 WSW 13 19 7 10 1009.8 1009.9 0.0
26/01:30pm 16.1 12.0 6.0 51 4.9 NW 17 24 9 13 1010.0 1010.1 0.0
26/01:00pm 14.9 10.8 6.2 56 4.2 WNW 17 22 9 12 1010.5 1010.6 0.0
26/12:30pm 15.3 11.4 5.5 52 4.7 WNW 15 24 8 13 1010.9 1011.0 0.0
26/12:00pm 14.0 9.7 5.1 55 4.2 W 17 24 9 13 1011.5 1011.6 0.0
26/11:30am 14.3 11.6 7.4 63 3.4 WSW 11 17 6 9 1011.9 1012.0 0.0
26/11:00am 12.9 10.0 6.7 66 3.0 SW 11 17 6 9 1012.4 1012.5 0.0
26/10:30am 12.3 9.6 7.4 72 2.4 W 11 15 6 8 1012.7 1012.8 0.0
26/10:00am 11.8 9.5 7.3 74 2.2 WSW 9 15 5 8 1012.9 1013.0 0.0
26/09:30am 9.6 6.9 5.8 77 1.7 SW 9 11 5 6 1013.3 1013.3 0.0
26/09:00am 9.1 8.1 5.7 79 1.6 CALM 0 0 0 0 1013.3 1013.3 0.0
26/08:30am 8.6 6.7 6.9 89 0.8 SW 6 9 3 5 1013.5 1013.5 0.0
26/08:00am 6.8 5.9 5.9 94 0.4 CALM 0 0 0 0 1013.5 1013.5 0.0
26/07:30am 5.3 4.1 4.7 96 0.3 CALM 0 0 0 0 1013.8 1013.8 0.0
26/07:00am 2.8 1.1 2.1 95 0.3 CALM 0 0 0 0 1013.8 1013.8 0.0
26/06:30am 1.8 0.0 1.1 95 0.3 CALM 0 6 0 3 1013.7 1013.7 0.0
26/06:00am 2.3 0.6 1.6 95 0.3 CALM 0 0 0 0 1013.6 1013.6 0.0
26/05:30am 1.8 -0.8 0.9 94 0.3 SW 4 6 2 3 1013.3 1013.3 0.0
26/05:00am 1.8 -0.8 0.9 94 0.3 N 4 9 2 5 1013.6 1013.6 0.0
26/04:30am 2.1 -0.5 1.2 94 0.3 SW 4 9 2 5 1013.4 1013.4 0.0
26/04:00am 2.4 0.6 1.4 93 0.4 CALM 0 0 0 0 1013.4 1013.4 0.0
26/03:30am 3.3 1.7 2.4 94 0.4 CALM 0 0 0 0 1013.3 1013.3 0.0
26/03:00am 3.3 1.7 2.3 93 0.4 CALM 0 0 0 0 1013.4 1013.4 0.0
26/02:30am 3.3 1.6 2.1 92 0.5 CALM 0 0 0 0 1013.5 1013.5 0.0
26/02:00am 4.4 2.9 3.2 92 0.5 CALM 0 0 0 0 1013.6 1013.6 0.0
26/01:30am 4.7 3.3 3.4 91 0.5 CALM 0 2 0 1 1013.8 1013.8 0.0
26/01:00am 5.0 3.6 3.5 90 0.6 CALM 0 0 0 0 1014.0 1014.0 0.0
26/12:30am 5.0 3.5 2.9 86 0.9 CALM 0 0 0 0 1014.2 1014.2 0.0
26/12:00am 6.6 3.9 3.9 83 1.2 SSW 7 9 4 5 1014.1 1014.1 0.0
 
Date/Time
EST
Temp
°C
App
Temp
°C
Dew
Point
°C
Rel
Hum
%
Delta-T
°C
Wind Press
QNH
hPa
Press
MSL
hPa
Rain since
9am
mm
Dir  Spd
km/h
Gust
km/h
Spd
kts
Gust
kts
25/11:30pm 6.8 4.2 4.1 83 1.2 SW 7 11 4 6 1014.3 1014.3 0.0
25/11:00pm 6.8 4.1 3.9 82 1.2 SW 7 9 4 5 1014.3 1014.3 0.0
25/10:30pm 6.4 3.9 3.7 83 1.1 WSW 6 7 3 4 1014.4 1014.4 0.0
25/10:00pm 6.8 3.8 3.9 82 1.2 SW 9 11 5 6 1014.2 1014.2 0.0
25/09:30pm 7.4 4.4 4.0 79 1.5 SW 9 13 5 7 1014.1 1014.1 0.0
25/09:00pm 7.0 3.6 4.0 81 1.3 WNW 11 13 6 7 1014.1 1014.1 0.0
25/08:30pm 6.8 2.5 3.2 78 1.5 WNW 15 17 8 9 1013.7 1013.7 0.0
25/08:00pm 6.9 2.6 3.2 77 1.6 WNW 15 19 8 10 1013.3 1013.3 0.0
25/07:30pm 7.4 3.5 3.5 76 1.7 WNW 13 17 7 9 1012.9 1013.0 0.0
25/07:00pm 8.4 5.8 4.0 74 1.9 WSW 7 9 4 5 1012.5 1012.6 0.0
25/06:30pm 9.3 4.8 4.1 70 2.3 WSW 17 20 9 11 1012.0 1012.1 0.0
25/06:00pm 10.1 5.3 2.5 59 3.3 WSW 17 28 9 15 1011.6 1011.7 0.0
25/05:30pm 10.9 5.9 3.7 61 3.2 W 19 24 10 13 1011.3 1011.4 0.0
25/05:00pm 11.8 6.6 3.8 58 3.6 WSW 20 26 11 14 1011.2 1011.3 0.0
25/04:30pm 12.2 5.8 3.2 54 4.0 WSW 26 35 14 19 1010.8 1010.9 0.0
25/04:00pm 12.7 6.9 4.4 57 3.8 W 24 33 13 18 1010.8 1010.9 0.0
25/03:30pm 13.1 7.0 4.8 57 3.8 WSW 26 33 14 18 1010.7 1010.8 0.0
25/03:00pm 13.8 7.7 4.7 54 4.2 W 26 39 14 21 1010.6 1010.7 0.0
25/02:30pm 12.4 5.6 5.1 61 3.4 WSW 30 44 16 24 1010.5 1010.6 0.0
25/02:00pm 13.7 8.5 5.3 57 3.9 W 22 30 12 16 1010.6 1010.7 0.0
25/01:30pm 12.7 5.7 5.8 63 3.2 WSW 32 44 17 24 1010.5 1010.6 0.0
25/01:00pm 12.9 6.5 5.1 59 3.6 WSW 28 39 15 21 1010.3 1010.4 0.0
25/12:30pm 12.6 7.0 5.5 62 3.3 W 24 33 13 18 1010.4 1010.5 0.0
25/12:00pm 12.5 6.9 5.4 62 3.3 W 24 33 13 18 1010.2 1010.3 0.0
25/11:30am 13.1 6.1 6.2 63 3.3 WSW 32 44 17 24 1009.9 1010.0 0.0
25/11:00am 13.4 7.5 7.4 67 2.9 W 28 41 15 22 1009.9 1010.0 0.0
25/10:30am 13.0 7.6 7.9 71 2.5 WNW 26 37 14 20 1009.7 1009.8 0.0
25/10:00am 13.1 8.5 8.2 72 2.4 W 22 32 12 17 1009.7 1009.8 0.0
25/09:30am 12.5 6.8 6.8 68 2.7 WSW 26 35 14 19 1009.5 1009.6 0.0
25/09:00am 12.1 7.5 8.2 77 1.9 W 22 35 12 19 1009.4 1009.5 0.4
25/08:30am 12.0 7.3 7.9 76 2.0 W 22 33 12 18 1008.9 1009.0 0.4
25/08:00am 11.6 7.3 7.9 78 1.8 W 20 28 11 15 1008.5 1008.6 0.4
25/07:30am 11.5 7.1 9.1 85 1.2 WSW 22 28 12 15 1008.2 1008.3 0.4
25/07:00am 10.9 7.9 9.2 89 0.9 W 15 20 8 11 1007.7 1007.8 0.4
25/06:30am 10.6 7.5 8.9 89 0.8 WNW 15 20 8 11 1007.5 1007.6 0.4
25/06:00am 10.4 6.5 8.7 89 0.8 W 19 22 10 12 1007.2 1007.2 0.2
25/05:30am 10.3 6.8 8.9 91 0.7 W 17 22 9 12 1007.0 1007.0 0.2
25/05:13am 10.4 6.5 8.8 90 0.8 W 19 24 10 13 1006.9 1006.9 0.2
25/05:10am 10.4 6.5 8.8 90 0.8 W 19 24 10 13 1006.8 1006.8 0.2
25/05:00am 10.5 6.5 8.9 90 0.8 WSW 20 30 11 16 1006.7 1006.7 0.2
25/04:52am 10.7 5.9 9.0 89 0.8 WSW 24 35 13 19 1006.6 1006.6 0.2
25/04:47am 11.1 7.2 9.5 90 0.8 W 20 35 11 19 1006.6 1006.6 0.2
25/04:30am 11.1 9.4 9.7 91 0.7 W 9 13 5 7 1006.3 1006.3 0.0
25/04:00am 11.1 9.3 9.5 90 0.8 W 9 11 5 6 1006.0 1006.0 0.0
25/03:30am 11.2 11.1 9.5 89 0.9 CALM 0 0 0 0 1006.0 1006.0 0.0
25/03:00am 11.3 10.0 9.2 87 1.1 WNW 6 7 3 4 1005.9 1005.9 0.0
25/02:30am 11.4 9.5 9.1 86 1.2 WNW 9 11 5 6 1006.1 1006.1 0.0
25/02:00am 11.9 9.6 9.1 83 1.4 W 11 13 6 7 1006.1 1006.1 0.0
25/01:30am 12.2 9.9 9.0 81 1.6 W 11 15 6 8 1006.3 1006.3 0.0
25/01:00am 12.3 10.6 8.4 77 1.9 WSW 7 9 4 5 1006.2 1006.2 0.0
25/12:30am 12.7 11.1 8.0 73 2.3 NNW 6 9 3 5 1006.3 1006.3 0.0
25/12:00am 12.7 11.2 8.4 75 2.1 NNW 6 7 3 4 1006.3 1006.3 0.0
 
Date/Time
EST
Temp
°C
App
Temp
°C
Dew
Point
°C
Rel
Hum
%
Delta-T
°C
Wind Press
QNH
hPa
Press
MSL
hPa
Rain since
9am
mm
Dir  Spd
km/h
Gust
km/h
Spd
kts
Gust
kts
24/11:30pm 12.5 11.9 9.0 79 1.8 N 2 7 1 4 1006.3 1006.3 0.0
24/11:00pm 12.9 12.6 8.6 75 2.2 CALM 0 0 0 0 1006.3 1006.3 0.0
24/10:30pm 11.9 10.5 8.9 82 1.5 N 6 7 3 4 1006.2 1006.2 0.0
24/10:00pm 12.6 12.0 8.9 78 1.9 S 2 7 1 4 1006.3 1006.3 0.0
24/09:30pm 12.9 11.4 8.4 74 2.2 SW 6 11 3 6 1006.4 1006.4 0.0
24/09:00pm 13.2 12.8 8.1 71 2.5 CALM 0 0 0 0 1006.4 1006.4 0.0
24/08:30pm 14.6 14.0 7.4 62 3.6 CALM 0 0 0 0 1006.4 1006.4 0.0
24/08:00pm 14.2 12.5 7.7 65 3.2 SSW 6 9 3 5 1006.4 1006.4 0.0
24/07:30pm 15.0 14.2 6.6 57 4.1 CALM 0 0 0 0 1006.1 1006.1 0.0
24/07:00pm 16.3 14.9 5.3 48 5.3 WNW 2 7 1 4 1006.1 1006.1 0.0
24/06:30pm 15.6 13.0 6.1 53 4.6 NW 9 13 5 7 1005.9 1005.9 0.0
24/06:00pm 15.9 12.6 6.6 54 4.6 WNW 13 17 7 9 1005.6 1005.6 0.0
24/05:30pm 17.9 15.0 6.7 48 5.6 WNW 11 19 6 10 1005.5 1005.5 0.0
24/05:00pm 19.0 15.3 6.5 44 6.3 W 15 22 8 12 1005.3 1005.3 0.0
24/04:30pm 19.3 15.9 7.7 47 5.9 WNW 15 20 8 11 1005.2 1005.2 0.0
24/04:00pm 20.4 19.4 10.2 52 5.5 S 6 9 3 5 1005.3 1005.3 0.0
24/03:30pm 20.1 18.4 9.7 51 5.6 SSW 9 11 5 6 1005.3 1005.3 0.0
24/03:00pm 20.3 19.2 10.7 54 5.3 S 7 11 4 6 1005.4 1005.4 0.0
24/02:30pm 20.6 19.2 11.0 54 5.3 NNE 9 13 5 7 1005.4 1005.4 0.0
24/02:00pm 19.8 17.7 9.7 52 5.4 ENE 11 17 6 9 1005.1 1005.1 0.0

Other Formats:

Comma delimited format used in spreadsheet applications
http://www.bom.gov.au/fwo/IDV60801/IDV60801.94891.axf

JavaScript Object Notation format (JSON) in row-major order
http://www.bom.gov.au/fwo/IDV60801/IDV60801.94891.json